Time;durP1;ratioP1;P1;durP2;ratioP2;P2;SDS_P1;SDS_P2;PMS_P1;PMS_P2;Temp;Humidity;BMP_temperature;BMP_pressure;BME280_temperature;BME280_humidity;BME280_pressure;Samples;Min_cycle;Max_cycle;Signal;HPM_P1;HPM_P2
2021/09/22 00:02:02;;;;;;;1999.90;999.90;;;;;;;12.71;86.01;96285.00;5111210;28;20660;-73
2021/09/22 00:04:29;;;;;;;1999.90;999.90;;;;;;;12.74;85.98;96288.88;5101382;28;20203;-71
2021/09/22 00:06:56;;;;;;;1999.90;999.90;;;;;;;12.58;86.82;96283.16;5113922;28;20701;-72
2021/09/22 00:09:23;;;;;;;1999.90;999.90;;;;;;;12.60;86.90;96281.03;5115048;28;20199;-73
2021/09/22 00:11:50;;;;;;;1999.90;999.90;;;;;;;12.56;87.52;96285.25;5111844;27;20222;-72
2021/09/22 00:14:18;;;;;;;1999.90;999.90;;;;;;;12.62;86.91;96286.72;5111578;27;20209;-72
2021/09/22 00:16:46;;;;;;;1999.90;999.90;;;;;;;12.62;87.73;96280.72;5111128;28;20203;-74
2021/09/22 00:19:14;;;;;;;1999.90;999.90;;;;;;;12.61;87.16;96279.97;5111803;28;20187;-74
2021/09/22 00:21:41;;;;;;;1999.90;999.90;;;;;;;12.58;87.08;96283.16;5112847;28;20348;-73
2021/09/22 00:24:08;;;;;;;1999.90;999.90;;;;;;;12.59;87.44;96271.66;5112212;28;20195;-74
2021/09/22 00:26:36;;;;;;;1999.90;999.90;;;;;;;12.59;87.55;96265.66;5111931;28;20598;-75
2021/09/22 00:29:03;;;;;;;1999.90;999.90;;;;;;;12.56;87.40;96272.22;5111878;28;20202;-73
2021/09/22 00:31:35;;;;;;;1999.90;999.90;;;;;;;12.62;86.73;96265.09;5111398;27;20277;-73
2021/09/22 00:34:03;;;;;;;1999.90;999.90;;;;;;;12.54;87.42;96258.72;5111893;28;20214;-74
2021/09/22 00:36:31;;;;;;;1999.90;999.90;;;;;;;12.53;87.39;96262.38;5104464;28;20196;-74
2021/09/22 00:38:58;;;;;;;1999.90;999.90;;;;;;;12.44;87.55;96264.88;5090914;28;20211;-73
2021/09/22 00:41:25;;;;;;;1999.90;999.90;;;;;;;12.49;88.15;96262.19;5092126;28;20234;-73
2021/09/22 00:43:53;;;;;;;1999.90;999.90;;;;;;;12.44;88.40;96264.09;5093550;28;20191;-74
2021/09/22 00:46:20;;;;;;;1999.90;999.90;;;;;;;12.54;88.60;96258.72;5092826;28;20660;-74
2021/09/22 00:48:47;;;;;;;1999.90;999.90;;;;;;;12.55;87.76;96249.84;5092790;28;20211;-74
2021/09/22 00:51:16;;;;;;;1999.90;999.90;;;;;;;12.53;88.44;96251.94;5112117;28;20207;-72
2021/09/22 00:53:44;;;;;;;1999.90;999.90;;;;;;;12.54;87.86;96247.50;5111804;27;20245;-74
2021/09/22 00:56:11;;;;;;;1999.90;999.90;;;;;;;12.59;87.90;96242.97;5111843;28;20226;-74
2021/09/22 00:58:38;;;;;;;1999.90;999.90;;;;;;;12.57;87.66;96237.25;5111917;28;20203;-74
2021/09/22 01:01:05;;;;;;;1999.90;999.90;;;;;;;12.50;87.73;96239.50;5111187;28;20206;-74
2021/09/22 01:03:33;;;;;;;1999.90;999.90;;;;;;;12.31;88.65;96234.31;5111016;27;20191;-73
2021/09/22 01:06:01;;;;;;;1999.90;999.90;;;;;;;12.40;88.37;96229.22;5110843;28;20213;-73
2021/09/22 01:08:32;;;;;;;1999.90;999.90;;;;;;;12.33;88.70;96234.81;5110973;28;20689;-74
2021/09/22 01:11:00;;;;;;;1999.90;999.90;;;;;;;12.30;88.77;96226.78;5110930;28;20202;-74
2021/09/22 01:13:28;;;;;;;1999.90;999.90;;;;;;;12.36;88.86;96220.41;5111139;28;20229;-74
2021/09/22 01:15:55;;;;;;;1999.90;999.90;;;;;;;12.33;89.34;96215.78;5111004;28;20201;-73
2021/09/22 01:18:24;;;;;;;1999.90;999.90;;;;;;;12.25;88.53;96222.44;5111464;28;20199;-74
2021/09/22 01:20:54;;;;;;;1999.90;999.90;;;;;;;12.31;88.22;96212.69;5110933;28;20194;-72
2021/09/22 01:23:24;;;;;;;1999.90;999.90;;;;;;;12.34;88.39;96212.13;5110753;28;20199;-74
2021/09/22 01:25:53;;;;;;;1999.90;999.90;;;;;;;12.20;89.06;96206.88;5111053;28;20227;-74
2021/09/22 01:28:24;;;;;;;1999.90;999.90;;;;;;;12.23;88.94;96205.53;5110832;28;20205;-74
2021/09/22 01:30:52;;;;;;;1999.90;999.90;;;;;;;12.21;88.92;96211.00;5110795;28;20659;-74
2021/09/22 01:33:22;;;;;;;1999.90;999.90;;;;;;;12.31;88.76;96207.47;5110653;28;20218;-74
2021/09/22 01:35:49;;;;;;;1999.90;999.90;;;;;;;12.38;88.26;96198.22;5110961;28;20175;-74
2021/09/22 01:38:18;;;;;;;1999.90;999.90;;;;;;;12.38;87.88;96198.22;5110734;28;20679;-74
2021/09/22 01:40:55;;;;;;;1999.90;999.90;;;;;;;12.29;87.62;96189.53;5110600;28;20564;-73
2021/09/22 01:43:23;;;;;;;1999.90;999.90;;;;;;;12.25;87.98;96195.59;5109909;28;20186;-73
2021/09/22 01:45:51;;;;;;;1999.90;999.90;;;;;;;12.40;87.65;96193.47;5110666;28;20199;-73
2021/09/22 01:48:18;;;;;;;1999.90;999.90;;;;;;;12.28;86.45;96195.00;5110514;28;20198;-74
2021/09/22 01:50:45;;;;;;;1999.90;999.90;;;;;;;12.27;86.33;96196.06;5110443;28;20335;-74
2021/09/22 01:53:13;;;;;;;1999.90;999.90;;;;;;;12.23;85.80;96200.31;5283042;22;20316;-68
2021/09/22 01:55:40;;;;;;;1999.90;999.90;;;;;;;12.22;84.88;96194.31;5043183;28;20584;-68
2021/09/22 01:58:09;;;;;;;1999.90;999.90;;;;;;;12.25;84.84;96193.00;5036123;28;20196;-68
2021/09/22 02:00:36;;;;;;;1999.90;999.90;;;;;;;12.15;83.82;96190.56;5066447;28;20240;-69
2021/09/22 02:03:03;;;;;;;1999.90;999.90;;;;;;;12.22;82.72;96193.53;5048106;28;20576;-69
2021/09/22 02:05:31;;;;;;;1999.90;999.90;;;;;;;12.17;82.51;96191.03;5048490;28;20208;-68
2021/09/22 02:07:58;;;;;;;1999.90;999.90;;;;;;;12.14;83.12;96191.59;5048414;28;20195;-68
2021/09/22 02:10:25;;;;;;;1999.90;999.90;;;;;;;12.18;82.77;96192.56;5050019;28;20196;-69
2021/09/22 02:12:52;;;;;;;1999.90;999.90;;;;;;;11.94;83.17;96195.31;5061284;28;20227;-68
2021/09/22 02:15:21;;;;;;;1999.90;999.90;;;;;;;12.05;82.36;96187.03;5049047;28;20205;-68
2021/09/22 02:17:48;;;;;;;1999.90;999.90;;;;;;;12.05;82.03;96188.88;5049019;28;20207;-68
2021/09/22 02:20:16;;;;;;;1999.90;999.90;;;;;;;12.00;82.42;96192.31;5048644;28;20205;-68
2021/09/22 02:22:43;;;;;;;1999.90;999.90;;;;;;;12.00;82.37;96202.00;5042207;28;20234;-68
2021/09/22 02:25:12;;;;;;;1999.90;999.90;;;;;;;11.91;82.83;96201.06;5029013;28;20412;-68
2021/09/22 02:27:40;;;;;;;1999.90;999.90;;;;;;;11.84;83.91;96203.28;5029064;28;20236;-68
2021/09/22 02:30:09;;;;;;;1999.90;999.90;;;;;;;11.82;84.37;96210.56;5029013;28;20206;-68
2021/09/22 02:32:39;;;;;;;1999.90;999.90;;;;;;;11.87;84.34;96211.28;5040692;28;20213;-68
2021/09/22 02:35:07;;;;;;;1999.90;999.90;;;;;;;11.96;84.51;96206.97;5048618;28;20192;-68
2021/09/22 02:37:35;;;;;;;1999.90;999.90;;;;;;;12.03;84.34;96215.22;5048495;28;20201;-68
2021/09/22 02:40:02;;;;;;;1999.90;999.90;;;;;;;12.08;83.86;96216.97;5048366;28;20200;-68
2021/09/22 02:42:29;;;;;;;1999.90;999.90;;;;;;;12.04;84.33;96219.38;5047570;28;20194;-68
2021/09/22 02:44:57;;;;;;;1999.90;999.90;;;;;;;12.06;84.24;96222.44;5047926;28;20646;-69
2021/09/22 02:47:25;;;;;;;1999.90;999.90;;;;;;;12.01;84.10;96214.72;5048364;28;20198;-68
2021/09/22 02:49:54;;;;;;;1999.90;999.90;;;;;;;12.02;84.31;96215.50;5048298;28;20287;-69
2021/09/22 02:52:21;;;;;;;1999.90;999.90;;;;;;;11.85;84.09;96212.63;5045453;28;20228;-69
2021/09/22 02:54:48;;;;;;;1999.90;999.90;;;;;;;11.92;84.77;96211.22;5050202;28;20216;-69
2021/09/22 02:57:16;;;;;;;1999.90;999.90;;;;;;;11.92;84.85;96211.22;5051962;28;20205;-69
2021/09/22 02:59:43;;;;;;;1999.90;999.90;;;;;;;11.84;84.64;96211.84;5052314;28;20197;-69
2021/09/22 03:02:10;;;;;;;1999.90;999.90;;;;;;;11.86;85.25;96209.72;5052048;28;20196;-68
2021/09/22 03:04:37;;;;;;;1999.90;999.90;;;;;;;11.83;85.69;96202.50;5052267;28;20649;-69
2021/09/22 03:07:06;;;;;;;1999.90;999.90;;;;;;;11.77;86.36;96203.63;5051714;28;20204;-68
2021/09/22 03:09:33;;;;;;;1999.90;999.90;;;;;;;11.71;85.86;96199.50;5052330;28;20208;-68
2021/09/22 03:12:00;;;;;;;1999.90;999.90;;;;;;;11.72;86.33;96189.88;5051377;28;20216;-68
2021/09/22 03:14:27;;;;;;;1999.90;999.90;;;;;;;11.68;86.49;96189.66;5051733;28;20224;-68
2021/09/22 03:16:54;;;;;;;1999.90;999.90;;;;;;;11.60;87.48;96193.69;5051525;28;20197;-68
2021/09/22 03:19:21;;;;;;;1999.90;999.90;;;;;;;11.71;87.00;96194.28;5051437;28;20197;-68
2021/09/22 03:21:49;;;;;;;1999.90;999.90;;;;;;;11.75;86.36;96199.75;5051689;28;20193;-68
2021/09/22 03:24:17;;;;;;;1999.90;999.90;;;;;;;11.75;85.93;96197.94;5051625;28;20611;-67
2021/09/22 03:26:44;;;;;;;1999.90;999.90;;;;;;;11.78;85.91;96192.16;5051343;28;20201;-68
2021/09/22 03:29:11;;;;;;;1999.90;999.90;;;;;;;11.75;85.99;96197.16;5051451;28;20197;-68
2021/09/22 03:31:41;;;;;;;1999.90;999.90;;;;;;;11.66;85.94;96195.16;5051241;28;20681;-67
2021/09/22 03:34:08;;;;;;;1999.90;999.90;;;;;;;11.57;86.65;96196.84;5051634;28;20606;-68
2021/09/22 03:36:35;;;;;;;1999.90;999.90;;;;;;;11.64;86.82;96197.28;5051538;28;20204;-68
2021/09/22 03:39:02;;;;;;;1999.90;999.90;;;;;;;11.69;85.66;96191.22;5051295;28;20197;-68
2021/09/22 03:41:31;;;;;;;1999.90;999.90;;;;;;;11.64;86.13;96189.47;5051569;28;20201;-68
2021/09/22 03:43:58;;;;;;;1999.90;999.90;;;;;;;11.71;85.98;96186.47;5051281;28;20193;-68
2021/09/22 03:46:25;;;;;;;1999.90;999.90;;;;;;;11.73;85.79;96194.81;5051166;28;20200;-68
2021/09/22 03:48:53;;;;;;;1999.90;999.90;;;;;;;11.79;85.75;96191.09;5071316;28;20201;-68
2021/09/22 03:51:20;;;;;;;1999.90;999.90;;;;;;;11.78;85.50;96197.34;5071406;28;20192;-68
2021/09/22 03:53:47;;;;;;;1999.90;999.90;;;;;;;11.73;85.45;96191.44;5054981;28;20229;-68
2021/09/22 03:56:14;;;;;;;1999.90;999.90;;;;;;;11.71;85.33;96194.28;5050962;28;20547;-67
2021/09/22 03:58:43;;;;;;;1999.90;999.90;;;;;;;11.78;84.45;96184.34;5050925;28;20688;-68
2021/09/22 04:01:10;;;;;;;1999.90;999.90;;;;;;;11.81;84.65;96182.97;5050655;28;20199;-67
2021/09/22 04:03:37;;;;;;;1999.90;999.90;;;;;;;11.83;84.17;96184.25;5050927;28;20220;-67
2021/09/22 04:06:04;;;;;;;1999.90;999.90;;;;;;;11.84;84.13;96177.22;5049705;28;20256;-67
2021/09/22 04:08:31;;;;;;;1999.90;999.90;;;;;;;11.83;84.77;96179.06;5050666;28;20651;-67
2021/09/22 04:10:58;;;;;;;1999.90;999.90;;;;;;;11.81;84.61;96180.38;5050733;28;20201;-67
2021/09/22 04:13:26;;;;;;;1999.90;999.90;;;;;;;11.83;85.31;96178.28;5050298;28;20229;-67
2021/09/22 04:15:54;;;;;;;1999.90;999.90;;;;;;;11.97;84.68;96171.28;5050410;28;20239;-67
2021/09/22 04:18:21;;;;;;;1999.90;999.90;;;;;;;11.92;84.39;96161.72;5050220;28;20212;-68
2021/09/22 04:20:49;;;;;;;1999.90;999.90;;;;;;;11.81;84.60;96168.13;5049179;28;20201;-68
2021/09/22 04:23:16;;;;;;;1999.90;999.90;;;;;;;11.92;84.27;96158.34;5038249;28;20205;-69
2021/09/22 04:25:43;;;;;;;1999.90;999.90;;;;;;;11.83;83.66;96158.22;5029521;28;20201;-70
2021/09/22 04:28:10;;;;;;;1999.90;999.90;;;;;;;11.84;83.91;96145.97;5035805;28;20689;-69
2021/09/22 04:30:38;;;;;;;1999.90;999.90;;;;;;;11.94;84.16;96148.41;5029933;28;20209;-70
2021/09/22 04:33:06;;;;;;;1999.90;999.90;;;;;;;11.98;82.45;96144.19;5028568;28;20225;-70
2021/09/22 04:35:34;;;;;;;1999.90;999.90;;;;;;;11.96;82.29;96141.84;5028134;28;20259;-70
2021/09/22 04:38:02;;;;;;;1999.90;999.90;;;;;;;12.00;82.85;96142.81;5029996;28;20198;-69
2021/09/22 04:40:30;;;;;;;1999.90;999.90;;;;;;;11.93;82.17;96129.41;5030564;28;20630;-70
2021/09/22 04:42:57;;;;;;;1999.90;999.90;;;;;;;11.98;81.78;96126.72;5030175;28;20202;-70
2021/09/22 04:45:26;;;;;;;1999.90;999.90;;;;;;;12.04;81.68;96125.59;5030181;28;20197;-70
2021/09/22 04:47:55;;;;;;;1999.90;999.90;;;;;;;11.96;82.24;96130.66;5054502;28;20334;-70
2021/09/22 04:50:25;;;;;;;1999.90;999.90;;;;;;;11.97;82.13;96129.59;5056946;28;20194;-70
2021/09/22 04:52:53;;;;;;;1999.90;999.90;;;;;;;11.91;82.62;96126.31;5049670;28;20225;-70
2021/09/22 04:55:20;;;;;;;1999.90;999.90;;;;;;;12.00;82.06;96127.19;5050084;28;20225;-69
2021/09/22 04:57:47;;;;;;;1999.90;999.90;;;;;;;11.95;82.02;96129.13;5049888;28;20197;-70
2021/09/22 05:00:15;;;;;;;1999.90;999.90;;;;;;;11.81;81.78;96126.47;5050036;28;20649;-69
2021/09/22 05:02:42;;;;;;;1999.90;999.90;;;;;;;11.84;81.46;96131.13;5049746;28;20205;-70
2021/09/22 05:05:10;;;;;;;1999.90;999.90;;;;;;;11.73;82.02;96139.38;5049670;28;20197;-69
2021/09/22 05:07:39;;;;;;;1999.90;999.90;;;;;;;11.76;81.07;96128.38;5050075;28;20208;-70
2021/09/22 05:10:08;;;;;;;1999.90;999.90;;;;;;;11.77;81.11;96135.13;5049669;28;20586;-69
2021/09/22 05:12:35;;;;;;;1999.90;999.90;;;;;;;11.88;80.73;96136.53;5050088;28;20193;-70
2021/09/22 05:15:02;;;;;;;1999.90;999.90;;;;;;;11.96;79.80;96144.47;5049672;28;20228;-70
2021/09/22 05:17:30;;;;;;;1999.90;999.90;;;;;;;12.04;79.44;96141.22;5049458;28;20211;-69
2021/09/22 05:19:57;;;;;;;1999.90;999.90;;;;;;;12.04;79.46;96145.66;5049459;28;20204;-70
2021/09/22 05:22:25;;;;;;;1999.90;999.90;;;;;;;12.14;79.45;96137.66;5049522;28;20746;-68
2021/09/22 05:24:54;;;;;;;1999.90;999.90;;;;;;;12.04;78.31;96133.41;5049638;28;20227;-69
2021/09/22 05:27:21;;;;;;;1999.90;999.90;;;;;;;12.10;77.88;96133.31;5049362;28;20201;-68
2021/09/22 05:29:48;;;;;;;1999.90;999.90;;;;;;;12.24;77.91;96128.91;5049230;28;20224;-68
2021/09/22 05:32:15;;;;;;;1999.90;999.90;;;;;;;12.24;78.18;96131.50;5049155;28;20209;-69
2021/09/22 05:34:43;;;;;;;1999.90;999.90;;;;;;;12.23;78.29;96133.34;5049058;28;20227;-69
2021/09/22 05:37:10;;;;;;;1999.90;999.90;;;;;;;12.39;78.15;96141.66;5049146;28;20671;-69
2021/09/22 05:39:39;;;;;;;1999.90;999.90;;;;;;;12.33;76.13;96148.78;5049595;28;20605;-69
2021/09/22 05:42:07;;;;;;;1999.90;999.90;;;;;;;12.38;76.19;96135.66;5049324;28;20227;-69
2021/09/22 05:44:34;;;;;;;1999.90;999.90;;;;;;;12.39;74.87;96146.88;5048999;28;20201;-69
2021/09/22 05:47:02;;;;;;;1999.90;999.90;;;;;;;12.44;74.52;96138.97;5054369;28;20588;-69
2021/09/22 05:49:29;;;;;;;1999.90;999.90;;;;;;;12.47;74.85;96138.38;5069249;28;20376;-69
2021/09/22 05:51:56;;;;;;;1999.90;999.90;;;;;;;12.55;72.90;96145.53;5068722;28;20228;-68
2021/09/22 05:54:23;;;;;;;1999.90;999.90;;;;;;;12.64;74.67;96135.22;5048884;28;20201;-69
2021/09/22 05:56:51;;;;;;;1999.90;999.90;;;;;;;12.65;72.56;96139.38;5049245;28;20201;-69
2021/09/22 05:59:19;;;;;;;1999.90;999.90;;;;;;;12.70;72.87;96134.78;5048930;28;20204;-69
2021/09/22 06:01:46;;;;;;;1999.90;999.90;;;;;;;12.79;70.83;96135.69;5048865;28;20203;-69
2021/09/22 06:04:14;;;;;;;1999.90;999.90;;;;;;;12.87;70.75;96137.59;5049076;28;20189;-70
2021/09/22 06:06:41;;;;;;;1999.90;999.90;;;;;;;12.90;70.17;96121.34;5049233;28;20228;-70
2021/09/22 06:09:08;;;;;;;1999.90;999.90;;;;;;;12.97;70.61;96130.63;5048809;28;20197;-70
2021/09/22 06:11:35;;;;;;;1999.90;999.90;;;;;;;13.10;70.48;96124.63;5048829;28;20213;-70
2021/09/22 06:14:02;;;;;;;1999.90;999.90;;;;;;;13.05;71.32;96122.88;5049100;28;20236;-70
2021/09/22 06:16:31;;;;;;;1999.90;999.90;;;;;;;12.97;69.63;96125.41;5049136;28;20236;-69
2021/09/22 06:19:01;;;;;;;1999.90;999.90;;;;;;;12.98;70.37;96116.53;5048808;28;20193;-70
2021/09/22 06:21:28;;;;;;;1999.90;999.90;;;;;;;13.03;69.27;96119.81;5048701;28;20196;-70
2021/09/22 06:23:55;;;;;;;1999.90;999.90;;;;;;;13.04;68.78;96118.75;5048831;28;20201;-70
2021/09/22 06:26:25;;;;;;;1999.90;999.90;;;;;;;12.91;68.03;96112.47;5048692;28;20193;-69
2021/09/22 06:28:52;;;;;;;1999.90;999.90;;;;;;;12.91;68.99;96115.06;5049640;28;20232;-70
2021/09/22 06:31:20;;;;;;;1999.90;999.90;;;;;;;12.63;69.18;96116.19;5052755;28;20250;-70
2021/09/22 06:33:49;;;;;;;1999.90;999.90;;;;;;;12.72;68.98;96118.88;5052606;28;20763;-70
2021/09/22 06:36:17;;;;;;;1999.90;999.90;;;;;;;12.76;67.72;96120.59;5052964;28;20197;-70
2021/09/22 06:38:44;;;;;;;1999.90;999.90;;;;;;;12.67;68.35;96111.91;5052448;28;20672;-71
2021/09/22 06:41:11;;;;;;;1999.90;999.90;;;;;;;12.64;69.56;96117.72;5052806;28;20587;-72
2021/09/22 06:43:39;;;;;;;1999.90;999.90;;;;;;;12.81;70.36;96120.50;5052692;28;20235;-71
2021/09/22 06:46:06;;;;;;;1999.90;999.90;;;;;;;12.99;68.86;96123.28;5052283;28;20201;-70
2021/09/22 06:48:33;;;;;;;1999.90;999.90;;;;;;;12.93;67.97;96115.56;5070155;28;20201;-71
2021/09/22 06:51:02;;;;;;;1999.90;999.90;;;;;;;12.82;68.89;96114.22;5060835;28;20744;-71
2021/09/22 06:53:29;;;;;;;1999.90;999.90;;;;;;;12.98;69.70;96117.31;5051927;28;20673;-71
2021/09/22 06:55:56;;;;;;;1999.90;999.90;;;;;;;13.08;69.07;96124.16;5052523;28;20229;-71
2021/09/22 06:58:23;;;;;;;1999.90;999.90;;;;;;;13.13;67.72;96121.47;5052473;28;20197;-71
2021/09/22 07:00:50;;;;;;;1999.90;999.90;;;;;;;13.17;66.85;96125.78;5052479;28;20243;-71
2021/09/22 07:03:17;;;;;;;1999.90;999.90;;;;;;;13.02;67.25;96117.47;5052296;28;20205;-72
2021/09/22 07:05:45;;;;;;;1999.90;999.90;;;;;;;12.88;67.86;96139.16;5052533;28;20197;-71
2021/09/22 07:08:14;;;;;;;1999.90;999.90;;;;;;;12.98;65.79;96132.19;5051839;28;20296;-69
2021/09/22 07:10:41;;;;;;;1999.90;999.90;;;;;;;13.03;66.02;96130.25;5052060;28;20205;-68
2021/09/22 07:13:08;;;;;;;1999.90;999.90;;;;;;;12.95;66.50;96133.56;5051906;28;20687;-69
2021/09/22 07:15:36;;;;;;;1999.90;999.90;;;;;;;12.87;67.37;96135.00;5051724;28;20339;-70
2021/09/22 07:18:03;;;;;;;1999.90;999.90;;;;;;;12.93;66.93;96128.63;5051660;28;20200;-70
2021/09/22 07:20:31;;;;;;;1999.90;999.90;;;;;;;12.73;66.68;96136.84;5051683;28;20205;-70
2021/09/22 07:22:58;;;;;;;1999.90;999.90;;;;;;;12.67;67.30;96127.56;5051944;28;20197;-70
2021/09/22 07:25:27;;;;;;;1999.90;999.90;;;;;;;12.69;67.58;96127.28;5051912;28;20208;-69
2021/09/22 07:27:54;;;;;;;1999.90;999.90;;;;;;;12.87;66.87;96127.16;5051668;28;20208;-68
2021/09/22 07:30:21;;;;;;;1999.90;999.90;;;;;;;12.82;66.88;96129.88;5051877;28;20197;-69
2021/09/22 07:32:50;;;;;;;1999.90;999.90;;;;;;;12.91;67.24;96135.19;5051569;28;20212;-69
2021/09/22 07:35:18;;;;;;;1999.90;999.90;;;;;;;12.76;67.71;96128.44;5051333;28;20217;-69
2021/09/22 07:37:46;;;;;;;1999.90;999.90;;;;;;;12.76;68.14;96120.59;5051465;28;20212;-69
2021/09/22 07:40:15;;;;;;;1999.90;999.90;;;;;;;12.71;67.78;96127.75;5050321;28;20743;-69
2021/09/22 07:42:44;;;;;;;1999.90;999.90;;;;;;;12.47;68.53;96127.94;5051394;28;20201;-69
2021/09/22 07:45:13;;;;;;;1999.90;999.90;;;;;;;12.41;69.02;96126.50;5051288;28;20704;-70
2021/09/22 07:47:40;;;;;;;1999.90;999.90;;;;;;;12.50;68.85;96127.38;5061859;28;20188;-70
2021/09/22 07:50:09;;;;;;;1999.90;999.90;;;;;;;12.46;69.01;96119.34;5071426;28;20263;-70
2021/09/22 07:52:37;;;;;;;1999.90;999.90;;;;;;;12.39;69.44;96124.19;5065112;28;20225;-70
2021/09/22 07:55:05;;;;;;;1999.90;999.90;;;;;;;12.43;69.37;96121.78;5051239;28;20217;-70
2021/09/22 07:57:32;;;;;;;1999.90;999.90;;;;;;;12.47;69.17;96118.28;5050991;28;20197;-69
2021/09/22 08:00:01;;;;;;;1999.90;999.90;;;;;;;12.43;69.16;96116.56;5051007;28;20200;-70
2021/09/22 08:02:28;;;;;;;1999.90;999.90;;;;;;;12.48;69.35;96119.84;5050853;28;20287;-70
2021/09/22 08:04:55;;;;;;;1999.90;999.90;;;;;;;12.43;69.32;96111.34;5050941;28;20660;-70
2021/09/22 08:07:22;;;;;;;1999.90;999.90;;;;;;;12.60;69.18;96119.38;5051806;28;20284;-69
2021/09/22 08:09:50;;;;;;;1999.90;999.90;;;;;;;12.51;68.55;96119.25;5050868;28;20231;-70
2021/09/22 08:12:17;;;;;;;1999.90;999.90;;;;;;;12.55;68.36;96121.31;5050810;28;20736;-70
2021/09/22 08:14:44;;;;;;;1999.90;999.90;;;;;;;12.49;67.56;96104.97;5050926;28;20273;-70
2021/09/22 08:17:14;;;;;;;1999.90;999.90;;;;;;;12.60;67.84;96110.78;5050598;28;20208;-70
2021/09/22 08:19:42;;;;;;;1999.90;999.90;;;;;;;12.64;69.33;96106.53;5050940;28;20212;-71
2021/09/22 08:22:09;;;;;;;1999.90;999.90;;;;;;;12.78;67.90;96102.84;5050651;28;20723;-69
2021/09/22 08:24:37;;;;;;;1999.90;999.90;;;;;;;12.83;67.38;96102.72;5050833;28;20589;-69
2021/09/22 08:27:05;;;;;;;1999.90;999.90;;;;;;;12.88;67.83;96096.63;5050430;28;20258;-67
2021/09/22 08:29:32;;;;;;;1999.90;999.90;;;;;;;13.01;67.18;96102.88;5050313;28;20197;-69
2021/09/22 08:31:59;;;;;;;1999.90;999.90;;;;;;;13.19;67.15;96097.56;5050580;28;20850;-69
2021/09/22 08:34:28;;;;;;;1999.90;999.90;;;;;;;13.30;66.05;96104.09;5050073;28;20197;-69
2021/09/22 08:36:56;;;;;;;1999.90;999.90;;;;;;;13.21;65.74;96102.47;5050566;28;20319;-70
2021/09/22 08:39:23;;;;;;;1999.90;999.90;;;;;;;13.33;65.57;96103.53;5050214;28;20200;-70
2021/09/22 08:41:50;;;;;;;1999.90;999.90;;;;;;;13.26;65.52;96103.16;5050541;28;20201;-71
2021/09/22 08:44:19;;;;;;;1999.90;999.90;;;;;;;13.25;64.44;96098.25;5050306;28;20202;-72
2021/09/22 08:46:47;;;;;;;1999.90;999.90;;;;;;;13.25;65.79;96090.41;5053194;28;20203;-71
2021/09/22 08:49:15;;;;;;;1999.90;999.90;;;;;;;13.50;65.59;96089.06;5058825;28;20197;-69
2021/09/22 08:51:44;;;;;;;1999.90;999.90;;;;;;;13.65;63.47;96089.44;5049610;28;20201;-69
2021/09/22 08:54:12;;;;;;;1999.90;999.90;;;;;;;13.66;64.74;96088.41;5050194;28;20709;-68
2021/09/22 08:56:40;;;;;;;1999.90;999.90;;;;;;;13.68;63.20;96091.50;5049773;28;20224;-70
2021/09/22 08:59:08;;;;;;;1999.90;999.90;;;;;;;13.66;64.00;96085.00;5050059;28;20197;-72
2021/09/22 09:01:36;;;;;;;1999.90;999.90;;;;;;;13.63;62.12;96086.38;5049770;28;20212;-71
2021/09/22 09:04:16;;;;;;;1999.90;999.90;;;;;;;13.63;62.83;96077.78;5049812;28;20201;-71
2021/09/22 09:06:45;;;;;;;1999.90;999.90;;;;;;;13.96;62.33;96078.25;5050081;28;20182;-71
2021/09/22 09:09:13;;;;;;;1999.90;999.90;;;;;;;14.14;62.95;96069.44;5049723;28;20259;-70
2021/09/22 09:11:42;;;;;;;1999.90;999.90;;;;;;;14.08;62.21;96075.88;5050087;28;20201;-71
2021/09/22 09:14:11;;;;;;;1999.90;999.90;;;;;;;14.09;62.28;96072.19;5050017;28;20579;-71
2021/09/22 09:16:41;;;;;;;1999.90;999.90;;;;;;;14.22;63.94;96063.47;5049781;28;20228;-71
2021/09/22 09:19:14;;;;;;;1999.90;999.90;;;;;;;14.46;62.58;96056.06;5049667;28;20205;-71
2021/09/22 09:21:56;;;;;;;1999.90;999.90;;;;;;;14.33;61.07;96054.31;5049551;28;20200;-70
2021/09/22 09:24:31;;;;;;;1999.90;999.90;;;;;;;14.42;61.63;96049.13;5050095;28;20228;-71
2021/09/22 09:26:59;;;;;;;1999.90;999.90;;;;;;;14.55;60.49;96054.22;5049254;28;20197;-69
2021/09/22 09:29:27;;;;;;;1999.90;999.90;;;;;;;14.63;59.88;96055.34;5049252;28;20197;-69
2021/09/22 09:32:10;;;;;;;1999.90;999.90;;;;;;;14.70;58.14;96053.03;5049584;28;20570;-69
2021/09/22 09:34:38;;;;;;;1999.90;999.90;;;;;;;14.57;57.75;96052.09;5049313;28;20192;-70
2021/09/22 09:37:06;;;;;;;1999.90;999.90;;;;;;;14.62;59.13;96046.72;5049171;28;20193;-70
2021/09/22 09:39:35;;;;;;;1999.90;999.90;;;;;;;14.48;59.23;96042.69;5049216;28;20204;-70
2021/09/22 09:42:02;;;;;;;1999.90;999.90;;;;;;;14.67;59.25;96039.78;5049398;28;20684;-69
2021/09/22 09:44:32;;;;;;;1999.90;999.90;;;;;;;14.70;57.44;96036.56;5049014;28;20201;-69
2021/09/22 09:47:07;;;;;;;1999.90;999.90;;;;;;;14.78;58.12;96035.81;5053556;28;20193;-69
2021/09/22 09:49:36;;;;;;;1999.90;999.90;;;;;;;14.72;57.71;96039.66;5069378;28;20191;-69
2021/09/22 09:52:03;;;;;;;1999.90;999.90;;;;;;;14.72;57.40;96037.03;5067545;28;20239;-69
2021/09/22 09:54:35;;;;;;;1999.90;999.90;;;;;;;14.71;57.55;96035.47;5049071;28;20205;-70
2021/09/22 09:57:11;;;;;;;1999.90;999.90;;;;;;;14.93;56.20;96043.22;5048838;28;20316;-70
2021/09/22 09:59:44;;;;;;;1999.90;999.90;;;;;;;14.84;55.26;96037.22;5049054;28;20189;-70
2021/09/22 10:02:24;;;;;;;1999.90;999.90;;;;;;;14.90;56.45;96028.13;5049092;28;20715;-71
2021/09/22 10:04:51;;;;;;;1999.90;999.90;;;;;;;14.85;55.88;96033.50;5048330;28;20653;-71
2021/09/22 10:07:19;;;;;;;1999.90;999.90;;;;;;;14.90;55.62;96036.75;5048603;28;20595;-71
2021/09/22 10:09:49;;;;;;;1999.90;999.90;;;;;;;14.83;55.83;96033.06;5048797;28;20287;-69
2021/09/22 10:12:18;;;;;;;1999.90;999.90;;;;;;;14.95;55.74;96041.06;5048956;28;20614;-71
2021/09/22 10:14:46;;;;;;;1999.90;999.90;;;;;;;15.02;54.94;96038.75;5048632;28;20200;-71
2021/09/22 10:17:15;;;;;;;1999.90;999.90;;;;;;;15.07;53.57;96030.75;5048561;28;20220;-71
2021/09/22 10:19:45;;;;;;;1999.90;999.90;;;;;;;15.17;54.04;96027.81;5048546;28;20201;-71
2021/09/22 10:22:12;;;;;;;1999.90;999.90;;;;;;;15.11;54.67;96039.53;5048624;28;20201;-71
2021/09/22 10:24:41;;;;;;;1999.90;999.90;;;;;;;15.42;53.91;96027.03;5048875;28;20201;-71
2021/09/22 10:27:13;;;;;;;1999.90;999.90;;;;;;;15.60;53.48;96025.19;5048922;28;20207;-71
2021/09/22 10:29:51;;;;;;;1999.90;999.90;;;;;;;15.66;53.08;96025.78;5048924;28;20281;-71
2021/09/22 10:32:34;;;;;;;1999.90;999.90;;;;;;;15.80;53.24;96023.75;5048967;28;20235;-71
2021/09/22 10:35:35;;;;;;;1999.90;999.90;;;;;;;15.73;52.44;96020.84;5048876;28;20272;-71
2021/09/22 10:38:23;;;;;;;1999.90;999.90;;;;;;;15.59;53.68;96012.41;5048565;28;20200;-71
2021/09/22 10:40:52;;;;;;;1999.90;999.90;;;;;;;15.64;53.31;96005.13;5048632;28;20201;-71
2021/09/22 10:43:24;;;;;;;1999.90;999.90;;;;;;;15.49;54.61;95998.50;5048395;28;20292;-71
2021/09/22 10:46:11;;;;;;;1999.90;999.90;;;;;;;15.55;54.39;95993.91;5048709;28;20207;-71
2021/09/22 10:48:40;;;;;;;1999.90;999.90;;;;;;;15.16;55.21;95989.63;5067009;28;20196;-71
2021/09/22 10:51:10;;;;;;;1999.90;999.90;;;;;;;15.07;54.12;95981.00;5063190;28;20192;-71
2021/09/22 10:53:40;;;;;;;1999.90;999.90;;;;;;;15.32;54.81;95984.69;5048083;28;20231;-71
2021/09/22 10:56:09;;;;;;;1999.90;999.90;;;;;;;15.27;54.18;95985.63;5048524;28;20205;-70
2021/09/22 10:58:48;;;;;;;1999.90;999.90;;;;;;;15.15;54.94;95987.31;5048316;28;20206;-70
2021/09/22 11:01:49;;;;;;;1999.90;999.90;;;;;;;15.05;54.62;95986.56;5048491;28;20212;-70